Time;durP1;ratioP1;P1;durP2;ratioP2;P2;SDS_P1;SDS_P2;PMS_P1;PMS_P2;Temp;Humidity;BMP_temperature;BMP_pressure;BME280_temperature;BME280_humidity;BME280_pressure;Samples;Min_cycle;Max_cycle;Signal;HPM_P1;HPM_P2
2023/01/08 00:00:29;;;;;;;17.30;4.53;;;-0.30;99.90;0.30;96586.00;;;;5077798;28;20467;-64
2023/01/08 00:03:18;;;;;;;5.40;3.47;;;-0.40;99.90;-0.40;96588.00;;;;5089121;28;20424;-64
2023/01/08 00:06:11;;;;;;;9.10;6.23;;;-0.50;99.90;0.10;96597.00;;;;5088679;28;20426;-64
2023/01/08 00:09:00;;;;;;;8.50;4.90;;;-0.50;99.90;0.20;96578.00;;;;5079352;28;20471;-64
2023/01/08 00:11:49;;;;;;;8.27;5.00;;;-0.50;99.90;0.20;96579.00;;;;5092736;28;20430;-64
2023/01/08 00:14:38;;;;;;;5.17;4.73;;;-0.50;99.90;0.00;96575.00;;;;5089067;28;20445;-63
2023/01/08 00:17:28;;;;;;;5.10;3.70;;;-0.50;99.90;-0.40;96566.00;;;;5088800;28;20445;-65
2023/01/08 00:20:17;;;;;;;6.57;4.20;;;-0.60;99.90;-0.20;96583.00;;;;5089542;28;20915;-62
2023/01/08 00:23:05;;;;;;;11.77;5.83;;;-0.70;99.90;0.40;96580.00;;;;5088546;28;20421;-63
2023/01/08 00:25:54;;;;;;;8.00;5.40;;;-0.60;99.90;0.60;96577.00;;;;5083347;28;20527;-63
2023/01/08 00:28:43;;;;;;;12.80;6.53;;;-0.50;99.90;0.70;96584.00;;;;5082448;28;20422;-63
2023/01/08 00:31:32;;;;;;;10.87;5.43;;;-0.40;99.90;0.70;96587.00;;;;5082152;28;20506;-63
2023/01/08 00:34:22;;;;;;;10.57;4.97;;;-0.30;99.90;0.10;96579.00;;;;5076464;28;20959;-63
2023/01/08 00:37:10;;;;;;;7.43;4.67;;;-0.40;99.90;0.20;96584.00;;;;5085496;28;20905;-63
2023/01/08 00:39:59;;;;;;;3.37;2.93;;;-0.40;99.90;-0.10;96588.00;;;;5088663;28;20418;-65
2023/01/08 00:42:48;;;;;;;5.47;4.10;;;-0.50;99.90;0.10;96576.00;;;;5088799;28;20464;-63
2023/01/08 00:45:37;;;;;;;8.13;4.37;;;-0.50;99.90;0.30;96568.00;;;;5089610;28;20828;-63
2023/01/08 00:48:25;;;;;;;7.50;4.93;;;-0.40;99.90;0.40;96569.00;;;;5091319;28;20964;-63
2023/01/08 00:51:15;;;;;;;4.30;3.67;;;-0.40;99.90;0.10;96560.00;;;;5091363;28;20486;-63
2023/01/08 00:54:04;;;;;;;3.87;3.50;;;-0.40;99.90;0.10;96565.00;;;;5079913;28;20449;-63
2023/01/08 00:56:55;;;;;;;8.70;6.53;;;0.90;99.90;0.10;96564.00;;;;5092734;28;20483;-62
2023/01/08 00:59:43;;;;;;;6.50;4.63;;;-0.40;99.90;0.50;96572.00;;;;5092178;28;20425;-63
2023/01/08 01:02:32;;;;;;;8.77;6.83;;;-0.40;99.90;0.70;96576.00;;;;5092570;28;20498;-64
2023/01/08 01:05:21;;;;;;;10.60;6.27;;;-0.30;99.90;0.60;96571.00;;;;5079587;28;21210;-63
2023/01/08 01:08:11;;;;;;;11.97;5.60;;;-0.10;99.90;0.20;96578.00;;;;5090938;28;21108;-63
2023/01/08 01:10:59;;;;;;;9.13;5.73;;;-0.20;99.90;0.60;96569.00;;;;5087780;28;20422;-63
2023/01/08 01:13:49;;;;;;;9.23;6.07;;;-0.20;99.90;0.70;96578.00;;;;5083722;28;20413;-63
2023/01/08 01:16:38;;;;;;;7.53;5.67;;;-0.20;99.90;0.70;96569.00;;;;5090933;28;20948;-63
2023/01/08 01:19:27;;;;;;;6.53;4.60;;;-0.20;99.90;0.50;96568.00;;;;5091952;28;20430;-63
2023/01/08 01:22:16;;;;;;;7.93;5.03;;;-0.10;99.90;0.50;96562.00;;;;5091559;28;21056;-63
2023/01/08 01:25:08;;;;;;;6.80;5.03;;;-0.20;99.90;0.60;96568.00;;;;5091401;28;20433;-63
2023/01/08 01:27:57;;;;;;;6.00;4.60;;;-0.20;99.90;0.50;96561.00;;;;5078564;28;20425;-63
2023/01/08 01:30:46;;;;;;;6.07;4.67;;;-0.20;99.90;0.40;96567.00;;;;5091537;28;20433;-63
2023/01/08 01:33:34;;;;;;;5.70;4.10;;;-0.30;99.90;0.10;96570.00;;;;5071540;28;20418;-63
2023/01/08 01:36:24;;;;;;;5.23;3.87;;;-0.30;99.90;0.10;96558.00;;;;5091465;28;20433;-63
2023/01/08 01:39:13;;;;;;;5.43;4.67;;;-0.40;99.90;0.10;96555.00;;;;5091637;28;20430;-65
2023/01/08 01:42:03;;;;;;;5.83;4.07;;;-0.50;99.90;0.10;96550.00;;;;5090892;28;20519;-64
2023/01/08 01:44:52;;;;;;;5.27;3.90;;;-0.50;99.90;0.40;96549.00;;;;5071668;28;20454;-62
2023/01/08 01:47:42;;;;;;;4.23;3.87;;;-0.40;99.90;0.10;96552.00;;;;5071498;28;20430;-64
2023/01/08 01:50:35;;;;;;;4.93;4.43;;;-0.40;99.90;-0.10;96542.00;;;;5078232;28;20440;-63
2023/01/08 01:53:30;;;;;;;6.17;2.90;;;-0.50;99.90;0.10;96542.00;;;;5091403;28;20515;-64
2023/01/08 01:56:19;;;;;;;8.80;3.40;;;-0.50;99.90;0.10;96539.00;;;;5091677;28;20505;-64
2023/01/08 01:59:10;;;;;;;7.07;3.97;;;-0.60;99.90;0.40;96538.00;;;;5080244;28;20414;-64
2023/01/08 02:02:00;;;;;;;5.13;4.10;;;-0.50;99.90;0.40;96532.00;;;;5078881;28;20461;-63
2023/01/08 02:04:49;;;;;;;7.23;4.17;;;-0.40;99.90;0.20;96535.00;;;;5090916;28;20442;-64
2023/01/08 02:07:47;;;;;;;6.30;4.77;;;-0.40;99.90;0.10;96530.00;;;;5090996;28;20838;-63
2023/01/08 02:10:45;;;;;;;6.97;3.67;;;-0.40;99.90;0.60;96530.00;;;;5090902;28;20433;-63
2023/01/08 02:13:38;;;;;;;7.47;4.43;;;-0.30;99.90;0.80;96530.00;;;;5089217;28;20441;-63
2023/01/08 02:16:36;;;;;;;4.63;4.03;;;-0.20;99.90;1.00;96527.00;;;;5075885;28;20443;-62
2023/01/08 02:19:38;;;;;;;4.20;3.77;;;-0.10;99.90;0.40;96522.00;;;;5090052;28;20443;-62
2023/01/08 02:22:42;;;;;;;9.07;4.93;;;-0.10;99.90;0.10;96522.00;;;;5090552;28;20465;-63
2023/01/08 02:25:53;;;;;;;3.77;3.00;;;-0.30;99.90;0.10;96523.00;;;;5091026;28;20518;-64
2023/01/08 02:28:48;;;;;;;4.03;3.50;;;-0.40;99.90;0.50;96521.00;;;;5083413;28;20425;-63
2023/01/08 02:31:41;;;;;;;5.73;3.13;;;-0.30;99.90;0.70;96523.00;;;;5086641;28;20453;-63
2023/01/08 02:34:31;;;;;;;6.03;3.83;;;-0.20;99.90;0.70;96516.00;;;;5086476;28;20473;-62
2023/01/08 02:37:20;;;;;;;3.07;2.70;;;-0.20;99.90;0.20;96534.00;;;;5089564;28;20418;-63
2023/01/08 02:40:21;;;;;;;5.83;3.70;;;-0.20;99.90;-0.20;96518.00;;;;5090317;28;20937;-63
2023/01/08 02:43:16;;;;;;;3.43;3.13;;;-0.40;99.90;0.20;96533.00;;;;5090248;28;20464;-62
2023/01/08 02:46:10;;;;;;;4.97;3.60;;;-0.50;99.90;0.00;96533.00;;;;5089901;28;20418;-63
2023/01/08 02:49:05;;;;;;;4.37;2.80;;;-0.40;99.90;0.30;96523.00;;;;5088632;28;20463;-63
2023/01/08 02:51:56;;;;;;;3.67;3.17;;;-0.40;99.90;0.60;96518.00;;;;5089479;28;20921;-64
2023/01/08 02:54:47;;;;;;;3.97;3.47;;;-0.40;99.90;0.60;96529.00;;;;5090545;28;20449;-64
2023/01/08 02:57:36;;;;;;;3.50;2.47;;;-0.30;99.90;0.10;96524.00;;;;5089815;28;20425;-63
2023/01/08 03:00:27;;;;;;;3.07;2.43;;;-0.40;99.90;-0.20;96506.00;;;;5089327;28;20982;-63
2023/01/08 03:03:20;;;;;;;4.97;3.70;;;-0.50;99.90;0.10;96508.00;;;;5088910;28;20457;-62
2023/01/08 03:06:14;;;;;;;5.77;3.07;;;-0.40;99.90;0.60;96503.00;;;;5089092;22;20485;-84
2023/01/08 03:09:04;;;;;;;3.57;3.20;;;0.30;99.90;0.40;96504.00;;;;5083719;28;20414;-84
2023/01/08 03:12:00;;;;;;;3.57;2.97;;;-0.30;99.90;0.40;96500.00;;;;5083944;28;20430;-84
2023/01/08 03:14:56;;;;;;;2.37;2.17;;;-0.30;99.90;0.10;96486.00;;;;5076444;28;20406;-85
2023/01/08 03:17:50;;;;;;;4.20;3.10;;;-0.40;99.90;0.30;96486.00;;;;5088652;28;20526;-85
2023/01/08 03:20:39;;;;;;;4.13;3.20;;;-0.30;99.90;0.40;96480.00;;;;5088714;28;20421;-86
2023/01/08 03:23:29;;;;;;;5.13;3.00;;;-0.30;99.90;0.60;96486.00;;;;5088859;28;20843;-87
2023/01/08 03:26:26;;;;;;;5.17;3.77;;;0.70;99.90;0.50;96475.00;;;;5075745;28;20808;-87
2023/01/08 03:29:19;;;;;;;4.00;3.53;;;0.30;99.90;0.20;96472.00;;;;5088949;28;20422;-88
2023/01/08 03:32:13;;;;;;;3.87;3.47;;;-0.40;99.90;0.40;96465.00;;;;5089061;28;20508;-86
2023/01/08 03:35:04;;;;;;;3.83;3.43;;;-0.40;99.90;0.50;96459.00;;;;5082681;28;20425;-86
2023/01/08 03:37:57;;;;;;;5.97;2.70;;;-0.40;99.90;0.30;96455.00;;;;5077493;28;20450;-87
2023/01/08 03:40:52;;;;;;;6.07;3.80;;;-0.40;99.90;0.30;96468.00;;;;5081849;28;20444;-86
2023/01/08 03:43:41;;;;;;;4.23;3.83;;;0.80;99.90;0.30;96465.00;;;;5087599;28;20465;-86
2023/01/08 03:46:34;;;;;;;6.30;3.63;;;-0.40;99.90;0.40;96461.00;;;;5089015;28;20445;-86
2023/01/08 03:49:26;;;;;;;29.23;14.30;;;-0.30;99.90;0.40;96460.00;;;;5088729;28;20428;-87
2023/01/08 03:52:23;;;;;;;31.00;18.93;;;-0.30;99.90;0.30;96459.00;;;;5090026;28;20807;-86
2023/01/08 03:55:12;;;;;;;22.50;13.87;;;1.10;99.90;0.60;96457.00;;;;5089791;28;20456;-86
2023/01/08 03:58:01;;;;;;;23.30;13.33;;;-0.40;99.90;0.40;96444.00;;;;5089531;28;20436;-86
2023/01/08 04:00:49;;;;;;;21.53;14.10;;;0.50;99.90;0.10;96434.00;;;;5089800;28;20425;-87
2023/01/08 04:03:38;;;;;;;23.27;10.80;;;-0.40;99.90;0.00;96421.00;;;;5090112;28;20476;-86
2023/01/08 04:06:27;;;;;;;11.50;8.37;;;-0.40;99.90;0.10;96429.00;;;;5089538;28;20454;-86
2023/01/08 04:09:17;;;;;;;16.40;10.30;;;0.60;99.90;0.60;96425.00;;;;5089689;28;20433;-86
2023/01/08 04:12:06;;;;;;;9.87;8.23;;;-0.40;99.90;0.50;96425.00;;;;5088560;28;20430;-86
2023/01/08 04:14:55;;;;;;;6.27;4.80;;;-0.30;99.90;-0.10;96405.00;;;;5076787;28;20437;-86
2023/01/08 04:17:44;;;;;;;6.23;4.00;;;0.50;99.90;-0.20;96401.00;;;;5086576;28;20473;-86
2023/01/08 04:20:32;;;;;;;3.47;3.23;;;-0.60;99.90;-0.10;96403.00;;;;5090926;28;20424;-87
2023/01/08 04:23:21;;;;;;;4.93;4.13;;;-0.60;99.90;0.20;96399.00;;;;5092700;28;20557;-87
2023/01/08 04:26:11;;;;;;;6.53;4.57;;;-0.60;99.90;0.30;96392.00;;;;5093342;28;20835;-86
2023/01/08 04:29:03;;;;;;;7.37;4.10;;;-0.60;99.90;0.20;96392.00;;;;5094096;28;20425;-86
2023/01/08 04:31:51;;;;;;;4.13;3.50;;;0.40;99.90;0.10;96388.00;;;;5092231;28;20945;-87
2023/01/08 04:34:40;;;;;;;6.20;4.47;;;-0.60;99.90;-0.40;96386.00;;;;5093455;28;20430;-86
2023/01/08 04:37:29;;;;;;;4.77;4.37;;;-0.80;99.90;-0.10;96386.00;;;;5093652;28;20445;-86
2023/01/08 04:40:17;;;;;;;6.67;2.77;;;-0.20;99.90;0.20;96390.00;;;;5091759;28;20421;-86
2023/01/08 04:43:08;;;;;;;7.10;3.77;;;1.70;99.90;0.30;96377.00;;;;5091177;28;20842;-86
2023/01/08 04:45:58;;;;;;;8.43;6.13;;;1.40;99.90;0.50;96378.00;;;;5090624;28;20454;-86
2023/01/08 04:48:47;;;;;;;4.27;2.90;;;-0.30;99.90;0.10;96380.00;;;;5092406;28;20482;-87
2023/01/08 04:51:36;;;;;;;6.40;3.17;;;-0.40;99.90;-0.40;96375.00;;;;5092041;28;20433;-86
2023/01/08 04:54:24;;;;;;;4.30;3.40;;;-0.50;99.90;-0.10;96390.00;;;;5091688;28;20449;-86
2023/01/08 04:57:13;;;;;;;8.03;4.03;;;-0.70;99.90;0.10;96380.00;;;;5092848;28;20537;-87
2023/01/08 05:00:05;;;;;;;5.60;4.33;;;-0.60;99.90;0.60;96384.00;;;;5092654;28;20486;-86
2023/01/08 05:02:55;;;;;;;8.40;4.00;;;-0.50;99.90;0.60;96377.00;;;;5097745;28;20444;-86
2023/01/08 05:05:44;;;;;;;4.47;4.00;;;-0.40;99.90;0.40;96369.00;;;;5097576;28;20433;-86
2023/01/08 05:08:32;;;;;;;9.80;5.40;;;-0.10;99.90;0.10;96362.00;;;;5077849;28;20425;-87
2023/01/08 05:11:21;;;;;;;5.20;3.17;;;0.30;99.90;-0.20;96355.00;;;;5091596;28;20440;-86
2023/01/08 05:14:10;;;;;;;5.80;4.07;;;-0.50;99.90;0.00;96364.00;;;;5091692;28;20426;-86
2023/01/08 05:17:00;;;;;;;4.97;3.70;;;-0.60;99.90;0.30;96359.00;;;;5091347;28;20461;-86
2023/01/08 05:19:49;;;;;;;4.93;3.93;;;0.40;99.90;0.40;96365.00;;;;5091970;28;20432;-86
2023/01/08 05:22:37;;;;;;;12.63;4.87;;;-0.50;99.90;0.10;96374.00;;;;5092241;28;20426;-86
2023/01/08 05:25:27;;;;;;;8.33;4.80;;;-0.50;99.90;-0.20;96355.00;;;;5092127;28;20942;-86
2023/01/08 05:28:15;;;;;;;8.80;4.73;;;0.30;99.90;0.10;96360.00;;;;5081573;28;20453;-86
2023/01/08 05:31:05;;;;;;;8.73;4.97;;;-0.60;99.90;0.30;96360.00;;;;5091558;28;20475;-87
2023/01/08 05:33:57;;;;;;;9.87;7.13;;;-0.50;99.90;0.30;96363.00;;;;5087173;28;20432;-86
2023/01/08 05:36:46;;;;;;;12.07;7.77;;;-0.50;99.90;0.30;96354.00;;;;5090835;28;20441;-86
2023/01/08 05:39:34;;;;;;;8.70;6.43;;;-0.50;99.90;0.30;96356.00;;;;5091664;28;20421;-86
2023/01/08 05:42:23;;;;;;;6.83;5.00;;;0.80;99.90;0.10;96357.00;;;;5092125;28;20430;-87
2023/01/08 05:45:12;;;;;;;13.93;4.83;;;0.00;99.90;0.30;96352.00;;;;5091299;28;20562;-86
2023/01/08 05:48:05;;;;;;;8.43;3.90;;;-0.30;99.90;0.30;96349.00;;;;5091055;28;20426;-87
2023/01/08 05:50:56;;;;;;;13.80;6.23;;;-0.40;99.90;0.00;96357.00;;;;5080351;28;21078;-87
2023/01/08 05:53:44;;;;;;;8.17;4.93;;;0.90;99.90;-0.10;96341.00;;;;5090519;28;20437;-86
2023/01/08 05:56:33;;;;;;;7.77;4.63;;;-0.60;99.90;0.10;96341.00;;;;5091306;28;20522;-87
2023/01/08 05:59:22;;;;;;;9.63;3.77;;;-0.30;99.90;0.20;96343.00;;;;5091137;28;20425;-86
2023/01/08 06:02:11;;;;;;;6.17;4.43;;;-0.70;99.90;0.00;96350.00;;;;5091625;28;20946;-86
2023/01/08 06:05:00;;;;;;;5.20;3.87;;;0.10;99.90;0.20;96339.00;;;;5089348;28;20462;-87
2023/01/08 06:07:50;;;;;;;3.70;2.40;;;-0.70;99.90;0.10;96340.00;;;;5091143;28;20454;-87
2023/01/08 06:10:39;;;;;;;5.67;3.57;;;-0.70;99.90;0.10;96321.00;;;;5091839;28;20422;-86
2023/01/08 06:13:28;;;;;;;3.90;2.70;;;0.30;99.90;-0.20;96319.00;;;;5088287;28;20514;-86
2023/01/08 06:16:17;;;;;;;13.43;6.00;;;-0.80;99.90;-0.10;96326.00;;;;5089939;28;20468;-87
2023/01/08 06:19:06;;;;;;;7.53;3.73;;;0.00;99.90;0.00;96319.00;;;;5090875;28;20430;-87
2023/01/08 06:21:54;;;;;;;13.50;5.77;;;0.80;99.90;-0.20;96308.00;;;;5089433;28;20769;-87
2023/01/08 06:24:44;;;;;;;6.30;3.93;;;-0.40;99.90;-0.30;96306.00;;;;5090798;28;20473;-86
2023/01/08 06:27:33;;;;;;;5.77;3.63;;;0.10;99.90;-0.10;96295.00;;;;5090402;28;20522;-86
2023/01/08 06:30:22;;;;;;;8.30;4.00;;;-0.80;99.90;0.30;96294.00;;;;5095954;28;20429;-86
2023/01/08 06:33:10;;;;;;;7.60;3.10;;;-0.30;99.90;0.40;96290.00;;;;5108997;28;20414;-86
2023/01/08 06:36:01;;;;;;;5.30;4.43;;;-0.60;99.90;0.60;96300.00;;;;5109460;28;20453;-87
2023/01/08 06:38:50;;;;;;;4.33;3.23;;;0.60;99.90;0.70;96290.00;;;;5109006;28;20957;-87
2023/01/08 06:41:40;;;;;;;10.60;4.40;;;0.00;99.90;0.30;96297.00;;;;5112145;28;21003;-87
2023/01/08 06:44:28;;;;;;;4.13;3.40;;;-0.40;99.90;0.10;96304.00;;;;5111805;28;20465;-87
2023/01/08 06:47:17;;;;;;;4.50;3.00;;;-0.50;99.90;-0.30;96309.00;;;;5115956;28;20483;-86
2023/01/08 06:50:07;;;;;;;9.00;3.80;;;0.70;99.90;0.10;96306.00;;;;5112691;28;20452;-86
2023/01/08 06:52:56;;;;;;;4.87;4.27;;;-0.60;99.90;0.10;96312.00;;;;5108550;28;20455;-86
2023/01/08 06:55:46;;;;;;;17.77;8.37;;;-0.60;99.90;0.00;96304.00;;;;5109963;28;20445;-86
2023/01/08 06:58:37;;;;;;;8.10;5.13;;;1.50;99.90;0.00;96313.00;;;;5106085;28;20487;-87
2023/01/08 07:01:26;;;;;;;10.53;4.43;;;-0.60;99.90;0.20;96315.00;;;;5110663;28;20861;-88
2023/01/08 07:04:15;;;;;;;9.23;4.50;;;-0.60;99.90;-0.10;96317.00;;;;5090598;28;20847;-87
2023/01/08 07:07:03;;;;;;;7.00;4.97;;;-0.30;99.90;-0.30;96313.00;;;;5087634;28;20437;-87
2023/01/08 07:09:52;;;;;;;6.90;5.10;;;-0.70;99.90;0.00;96318.00;;;;5091404;28;20502;-87
2023/01/08 07:12:41;;;;;;;4.70;3.17;;;0.70;99.90;0.20;96322.00;;;;5093668;28;20741;-87
2023/01/08 07:15:31;;;;;;;5.27;4.77;;;0.30;99.90;0.30;96330.00;;;;5085256;28;20495;-87
2023/01/08 07:18:19;;;;;;;4.63;3.30;;;-0.20;99.90;0.00;96331.00;;;;5100162;28;20447;-88
2023/01/08 07:21:09;;;;;;;4.83;4.03;;;0.90;99.90;-0.20;96327.00;;;;5080845;28;20934;-87
2023/01/08 07:23:58;;;;;;;3.80;3.47;;;-0.50;99.90;-0.50;96321.00;;;;5088988;28;20426;-87
2023/01/08 07:26:47;;;;;;;2.27;2.00;;;0.00;99.90;-0.30;96327.00;;;;5101060;28;20464;-86
2023/01/08 07:29:36;;;;;;;5.40;2.27;;;-0.70;99.90;-0.30;96325.00;;;;5085556;28;20486;-89
2023/01/08 07:32:26;;;;;;;1.20;1.20;;;-0.70;99.90;-0.10;96338.00;;;;5085295;28;20436;-90
2023/01/08 07:35:15;;;;;;;0.90;0.90;;;-0.60;99.90;-0.10;96333.00;;;;5085929;28;20437;-90
2023/01/08 07:38:04;;;;;;;2.27;1.87;;;-0.60;99.90;0.00;96326.00;;;;5088956;28;20443;-88
2023/01/08 07:40:53;;;;;;;2.07;1.97;;;1.40;99.90;0.30;96319.00;;;;5082995;28;20450;-89
2023/01/08 07:43:42;;;;;;;2.50;2.27;;;1.10;99.90;0.30;96331.00;;;;5083453;28;20508;-87
2023/01/08 07:46:31;;;;;;;1.73;1.63;;;1.00;99.90;0.60;96329.00;;;;5089657;28;20437;-89
2023/01/08 07:49:21;;;;;;;5.03;3.40;;;0.60;99.90;0.80;96320.00;;;;5090823;28;20456;-87
2023/01/08 07:52:10;;;;;;;3.37;3.07;;;0.80;99.90;0.50;96315.00;;;;5083680;28;20487;-87
2023/01/08 07:54:58;;;;;;;3.43;2.43;;;0.10;99.90;0.50;96331.00;;;;5080996;28;20428;-88
2023/01/08 07:57:47;;;;;;;3.20;2.33;;;1.20;99.90;0.70;96305.00;;;;5087860;28;20449;-88
2023/01/08 08:00:36;;;;;;;2.27;2.07;;;1.40;99.90;0.50;96329.00;;;;5088090;28;20429;-88
2023/01/08 08:03:25;;;;;;;3.50;2.73;;;1.40;99.90;0.30;96312.00;;;;5095038;28;20429;-87
2023/01/08 08:06:15;;;;;;;2.10;1.87;;;-0.10;99.90;0.20;96310.00;;;;5089967;28;20475;-89
2023/01/08 08:09:05;;;;;;;3.37;3.00;;;1.10;99.90;0.20;96302.00;;;;5084724;28;20833;-87
2023/01/08 08:11:54;;;;;;;2.83;2.53;;;0.10;99.90;0.60;96302.00;;;;5087410;28;20427;-88
2023/01/08 08:14:42;;;;;;;2.87;2.40;;;0.90;99.90;0.30;96301.00;;;;5086452;28;20441;-88
2023/01/08 08:17:32;;;;;;;2.03;1.93;;;1.10;99.90;0.20;96288.00;;;;5082798;28;20445;-90
2023/01/08 08:20:21;;;;;;;0.83;0.83;;;-1.90;99.90;0.10;96299.00;;;;5088529;28;20432;-90
2023/01/08 08:23:14;;;;;;;3.30;3.00;;;-0.20;99.90;0.60;96302.00;;;;5083445;28;20853;-86
2023/01/08 08:26:04;;;;;;;3.47;3.17;;;-0.10;99.90;0.80;96295.00;;;;5084606;28;20469;-87
2023/01/08 08:28:53;;;;;;;6.43;3.00;;;0.00;99.90;0.70;96291.00;;;;5091282;28;20436;-87
2023/01/08 08:31:42;;;;;;;9.33;4.20;;;0.60;99.90;1.20;96285.00;;;;5089314;28;20414;-87
2023/01/08 08:34:31;;;;;;;1.37;1.30;;;0.90;99.90;0.90;96270.00;;;;5086202;28;20805;-88
2023/01/08 08:37:20;;;;;;;6.20;4.17;;;0.70;99.90;1.00;96260.00;;;;5090105;28;20437;-86
2023/01/08 08:40:11;;;;;;;4.23;3.50;;;0.30;99.90;1.10;96262.00;;;;5087878;28;20418;-90
2023/01/08 08:43:02;;;;;;;2.73;2.57;;;0.40;99.90;1.00;96254.00;;;;5091993;28;20425;-89
2023/01/08 08:45:50;;;;;;;5.53;3.87;;;1.60;99.90;1.50;96255.00;;;;5085723;28;20555;-87
2023/01/08 08:48:39;;;;;;;4.00;2.73;;;1.10;99.90;1.40;96242.00;;;;5079682;28;20463;-86
2023/01/08 08:51:28;;;;;;;2.60;2.33;;;1.10;99.90;1.50;96241.00;;;;5088653;28;20473;-89
2023/01/08 08:54:17;;;;;;;2.93;2.60;;;0.80;99.90;1.40;96227.00;;;;5090688;28;20436;-87
2023/01/08 08:57:08;;;;;;;10.53;5.63;;;1.30;99.90;1.60;96231.00;;;;5086348;28;20441;-87
2023/01/08 08:59:56;;;;;;;4.53;2.87;;;0.90;99.90;1.60;96223.00;;;;5088659;28;20808;-86
2023/01/08 09:02:50;;;;;;;5.30;3.53;;;1.20;99.90;1.60;96232.00;;;;5088925;28;20440;-87
2023/01/08 09:05:39;;;;;;;5.87;4.63;;;1.70;99.90;1.70;96208.00;;;;5083393;28;20990;-86
2023/01/08 09:08:28;;;;;;;4.73;4.30;;;1.20;99.90;1.80;96203.00;;;;5085552;28;20429;-87
2023/01/08 09:11:17;;;;;;;3.67;2.80;;;1.60;99.90;1.70;96201.00;;;;5091332;28;20860;-87
2023/01/08 09:14:07;;;;;;;6.60;4.13;;;1.40;99.90;1.80;96189.00;;;;5087060;28;20418;-87
2023/01/08 09:16:56;;;;;;;7.47;5.07;;;1.60;99.90;2.10;96204.00;;;;5079928;28;20446;-86
2023/01/08 09:19:44;;;;;;;40.07;17.83;;;2.00;99.90;2.20;96193.00;;;;5085194;28;20434;-87
2023/01/08 09:22:33;;;;;;;11.07;5.37;;;1.40;99.90;1.90;96191.00;;;;5088442;28;20988;-85
2023/01/08 09:25:22;;;;;;;8.57;5.23;;;1.50;99.90;1.80;96180.00;;;;5091940;28;20469;-88
2023/01/08 09:28:12;;;;;;;5.90;5.00;;;1.40;99.90;2.10;96183.00;;;;5079364;28;20951;-89
2023/01/08 09:31:03;;;;;;;5.80;4.90;;;2.10;99.90;2.10;96196.00;;;;5085011;28;20461;-87
2023/01/08 09:33:52;;;;;;;5.77;5.17;;;1.70;99.90;2.30;96198.00;;;;5082572;28;20622;-87
2023/01/08 09:36:41;;;;;;;5.90;4.50;;;1.60;99.90;2.50;96182.00;;;;5094134;28;20445;-89
2023/01/08 09:39:30;;;;;;;5.53;3.93;;;1.70;99.90;2.50;96186.00;;;;5091784;28;20430;-87
2023/01/08 09:42:24;;;;;;;6.10;4.43;;;1.80;99.90;2.70;96185.00;;;;5079491;28;20453;-88
2023/01/08 09:45:24;;;;;;;5.73;4.27;;;1.90;99.90;3.00;96181.00;;;;5087280;28;20442;-87
2023/01/08 09:48:19;;;;;;;8.10;5.13;;;2.10;99.90;3.10;96170.00;;;;5078764;28;20483;-86
2023/01/08 09:51:12;;;;;;;6.20;4.47;;;2.20;99.90;3.10;96172.00;;;;5082432;28;20450;-87
2023/01/08 09:54:02;;;;;;;8.53;4.43;;;2.30;99.90;3.30;96166.00;;;;5087000;28;20475;-86
2023/01/08 09:56:51;;;;;;;9.53;6.40;;;2.40;99.90;3.50;96155.00;;;;5091872;28;20437;-88
2023/01/08 09:59:40;;;;;;;5.33;3.57;;;2.60;99.90;3.10;96143.00;;;;5102595;28;20850;-90
2023/01/08 10:02:30;;;;;;;7.53;4.73;;;2.60;99.90;3.80;96151.00;;;;5087794;28;20434;-88
2023/01/08 10:05:20;;;;;;;4.60;3.60;;;2.70;99.90;4.70;96149.00;;;;5077395;28;20468;-88
2023/01/08 10:08:14;;;;;;;9.47;4.97;;;3.00;99.90;4.50;96144.00;;;;5076542;28;20450;-89
2023/01/08 10:11:03;;;;;;;6.63;3.50;;;3.30;99.90;5.30;96141.00;;;;5082464;28;21114;-88
2023/01/08 10:13:54;;;;;;;10.03;4.77;;;3.60;99.90;6.10;96140.00;;;;5082832;28;20457;-89
2023/01/08 10:16:46;;;;;;;4.60;4.13;;;4.00;99.90;6.10;96154.00;;;;5084604;28;20457;-87
2023/01/08 10:19:35;;;;;;;6.80;4.50;;;4.40;99.90;6.40;96154.00;;;;5087236;28;20730;-88
2023/01/08 10:22:32;;;;;;;3.87;3.37;;;4.70;99.90;7.20;96159.00;;;;5085745;28;20203;-88
2023/01/08 10:25:24;;;;;;;4.90;3.97;;;5.50;99.90;7.10;96148.00;;;;5081538;28;20313;-87
2023/01/08 10:28:20;;;;;;;6.67;4.00;;;5.30;99.90;7.80;96139.00;;;;5083610;28;20234;-88
2023/01/08 10:31:15;;;;;;;3.80;3.40;;;5.70;99.90;8.50;96144.00;;;;5082601;28;20246;-89
2023/01/08 10:34:10;;;;;;;8.27;3.87;;;6.40;99.90;9.50;96155.00;;;;5088220;28;20191;-89
2023/01/08 10:37:00;;;;;;;5.80;4.47;;;7.80;99.90;10.00;96149.00;;;;5082296;28;20227;-89
2023/01/08 10:39:52;;;;;;;5.90;4.17;;;9.10;99.90;10.70;96138.00;;;;5086295;28;20195;-89
2023/01/08 10:42:40;;;;;;;3.90;3.27;;;10.20;99.90;11.40;96139.00;;;;5081620;28;20195;-90
2023/01/08 10:45:29;;;;;;;5.03;3.63;;;11.20;99.90;11.20;96146.00;;;;5082910;28;20199;-89
2023/01/08 10:48:18;;;;;;;4.73;3.77;;;11.90;99.90;10.70;96133.00;;;;5080488;28;20207;-89
2023/01/08 10:51:15;;;;;;;4.83;3.50;;;11.80;98.40;11.00;96132.00;;;;5089596;28;20264;-89
2023/01/08 10:54:21;;;;;;;5.80;4.25;;;11.90;99.90;10.80;96122.00;;;;5074783;28;20402;-90
2023/01/08 10:57:24;;;;;;;4.20;3.50;;;11.40;98.40;11.80;96141.00;;;;5074882;28;20392;-90
2023/01/08 11:00:28;;;;;;;4.80;3.80;;;11.70;98.70;11.90;96125.00;;;;5081060;28;20427;-90
2023/01/08 11:03:32;;;;;;;5.20;3.27;;;12.20;95.60;12.40;96124.00;;;;5079221;28;20660;-89
2023/01/08 11:06:24;;;;;;;6.17;4.07;;;12.70;94.70;11.70;96109.00;;;;5086577;28;20233;-90
2023/01/08 11:09:21;;;;;;;4.73;3.40;;;12.60;92.10;13.10;96105.00;;;;5080045;28;20249;-89
2023/01/08 11:12:32;;;;;;;4.57;3.30;;;12.90;94.80;11.80;96099.00;;;;5076654;28;20196;-90
2023/01/08 11:15:34;;;;;;;5.67;3.60;;;13.10;91.10;12.30;96097.00;;;;5081844;28;20199;-90
2023/01/08 11:18:25;;;;;;;4.17;3.33;;;12.70;91.70;12.70;96098.00;;;;5080693;28;20215;-89
2023/01/08 11:21:22;;;;;;;3.93;3.33;;;12.80;91.70;13.20;96101.00;;;;5087398;28;20195;-89
2023/01/08 11:24:22;;;;;;;4.27;2.80;;;13.20;91.60;13.00;96090.00;;;;5082697;28;20599;-90
2023/01/08 11:27:18;;;;;;;6.03;2.83;;;13.30;90.60;12.30;96089.00;;;;5085469;28;20708;-91
2023/01/08 11:30:14;;;;;;;3.57;3.07;;;12.90;88.70;12.90;96091.00;;;;5082060;28;20203;-89
2023/01/08 11:33:06;;;;;;;4.77;3.80;;;12.90;90.90;12.70;96076.00;;;;5083954;28;20196;-90
2023/01/08 11:36:04;;;;;;;4.43;2.97;;;12.80;90.30;12.30;96081.00;;;;5084601;28;20688;-91
2023/01/08 11:38:53;;;;;;;7.67;4.20;;;12.60;89.40;12.20;96083.00;;;;5086710;28;20229;-91
2023/01/08 11:42:15;;;;;;;3.90;3.17;;;12.30;90.80;12.80;96083.00;;;;5079211;28;20290;-92
2023/01/08 11:45:17;;;;;;;4.97;3.87;;;13.50;91.40;12.20;96070.00;;;;5092097;28;20206;-92
2023/01/08 11:48:35;;;;;;;3.87;2.93;;;12.00;91.90;12.30;96064.00;;;;5089353;28;20203;-92
2023/01/08 11:51:37;;;;;;;4.93;3.57;;;11.70;91.50;12.20;96065.00;;;;5086687;28;20243;-92
2023/01/08 11:54:46;;;;;;;5.40;3.50;;;11.50;91.60;11.80;96059.00;;;;5090404;28;20215;-92
2023/01/08 11:57:52;;;;;;;4.53;3.17;;;11.20;92.60;11.60;96058.00;;;;5085043;28;20295;-91
2023/01/08 12:00:59;;;;;;;5.63;3.70;;;10.90;92.80;11.90;96066.00;;;;5088396;28;20195;-92
2023/01/08 12:04:04;;;;;;;5.73;3.53;;;10.70;93.70;11.80;96055.00;;;;5081682;28;20290;-91
2023/01/08 12:07:00;;;;;;;5.30;3.77;;;10.60;94.00;11.60;96061.00;;;;5078309;28;20246;-91
2023/01/08 12:09:56;;;;;;;3.90;3.23;;;10.50;93.80;9.60;96058.00;;;;5080675;28;20196;-91
2023/01/08 12:13:02;;;;;;;4.23;3.07;;;10.00;94.90;9.20;96029.00;;;;5080048;28;20548;-91
2023/01/08 12:16:08;;;;;;;4.67;2.67;;;9.20;96.10;9.30;96032.00;;;;5080500;28;20305;-91
2023/01/08 12:19:14;;;;;;;4.87;2.93;;;8.70;97.80;9.10;96033.00;;;;5082630;28;20607;-91
2023/01/08 12:22:24;;;;;;;5.57;3.20;;;8.40;98.70;9.70;96056.00;;;;5080352;28;20203;-91
2023/01/08 12:25:46;;;;;;;3.57;3.23;;;8.20;99.50;9.90;96040.00;;;;5079890;28;20207;-91
2023/01/08 12:29:03;;;;;;;6.03;3.33;;;8.20;99.70;9.90;96034.00;;;;5074169;28;20208;-91
2023/01/08 12:32:30;;;;;;;7.40;3.70;;;8.20;99.20;10.00;96057.00;;;;5077165;28;20258;-93
2023/01/08 12:35:25;;;;;;;4.13;3.17;;;8.30;99.60;10.10;96040.00;;;;5021863;28;20212;-91
2023/01/08 12:38:21;;;;;;;6.40;3.23;;;8.30;99.90;10.10;96040.00;;;;5021179;28;20247;-91
2023/01/08 12:41:13;;;;;;;6.83;3.07;;;8.40;99.90;9.90;96037.00;;;;5081033;28;20930;-91
2023/01/08 12:44:04;;;;;;;6.83;3.97;;;8.40;99.90;9.60;96038.00;;;;5089342;27;20191;-92
2023/01/08 12:46:58;;;;;;;3.60;3.20;;;8.30;99.70;9.90;96035.00;;;;5084797;28;20223;-92
2023/01/08 12:49:56;;;;;;;7.67;2.83;;;8.30;99.90;10.00;96033.00;;;;5077362;28;20188;-91
2023/01/08 12:52:54;;;;;;;4.03;3.57;;;8.30;99.90;9.50;96039.00;;;;5084378;28;20297;-91